createdAt,value
2022-07-26T00:01:19.249Z,7.78
2022-07-26T00:03:48.376Z,9.23
2022-07-26T00:06:16.113Z,6.07
2022-07-26T00:08:46.699Z,6.43
2022-07-26T00:11:14.842Z,7.47
2022-07-26T00:13:42.362Z,5.32
2022-07-26T00:16:10.366Z,6.00
2022-07-26T00:18:38.095Z,12.23
2022-07-26T00:21:06.042Z,9.45
2022-07-26T00:23:34.594Z,10.90
2022-07-26T00:26:02.265Z,6.35
2022-07-26T00:28:29.779Z,5.07
2022-07-26T00:30:57.341Z,5.47
2022-07-26T00:33:24.965Z,6.38
2022-07-26T00:35:52.536Z,4.65
2022-07-26T00:38:20.145Z,5.38
2022-07-26T00:40:47.714Z,10.65
2022-07-26T00:43:15.255Z,7.70
2022-07-26T00:45:42.988Z,8.23
2022-07-26T00:48:10.690Z,8.45
2022-07-26T00:50:38.297Z,7.82
2022-07-26T00:53:06.167Z,8.13
2022-07-26T00:55:34.339Z,9.10
2022-07-26T00:58:02.389Z,5.95
2022-07-26T01:00:30.416Z,7.18
2022-07-26T01:03:00.639Z,5.47
2022-07-26T01:05:28.696Z,4.83
2022-07-26T01:07:56.811Z,5.70
2022-07-26T01:10:24.452Z,8.25
2022-07-26T01:12:51.880Z,7.30
2022-07-26T01:15:19.740Z,6.68
2022-07-26T01:17:47.552Z,5.35
2022-07-26T01:20:15.310Z,8.18
2022-07-26T01:22:42.833Z,10.55
2022-07-26T01:25:10.575Z,7.20
2022-07-26T01:27:41.157Z,7.07
2022-07-26T01:30:11.255Z,4.75
2022-07-26T01:32:39.490Z,7.20
2022-07-26T01:35:07.751Z,8.02
2022-07-26T01:37:35.393Z,5.70
2022-07-26T01:40:03.601Z,10.63
2022-07-26T01:42:32.178Z,4.97
2022-07-26T01:44:59.673Z,4.65
2022-07-26T01:47:27.098Z,6.38
2022-07-26T01:49:54.507Z,4.63
2022-07-26T01:52:22.222Z,9.32
2022-07-26T01:54:49.694Z,5.63
2022-07-26T01:57:17.214Z,4.75
2022-07-26T01:59:44.658Z,5.20
2022-07-26T02:02:12.189Z,5.07
2022-07-26T02:04:58.681Z,5.22
2022-07-26T02:07:31.625Z,4.07
2022-07-26T02:10:00.689Z,6.35
2022-07-26T02:12:28.315Z,8.35
2022-07-26T02:14:55.931Z,8.40
2022-07-26T02:17:23.652Z,10.73
2022-07-26T02:19:52.285Z,9.90
2022-07-26T02:22:20.390Z,9.07
2022-07-26T02:24:48.959Z,8.65
2022-07-26T02:27:17.492Z,7.30
2022-07-26T02:29:45.224Z,7.10
2022-07-26T02:32:12.678Z,9.38
2022-07-26T02:34:40.198Z,8.98
2022-07-26T02:37:07.761Z,7.15
2022-07-26T02:39:35.227Z,6.78
2022-07-26T02:42:03.514Z,6.57
2022-07-26T02:44:31.103Z,10.25
2022-07-26T02:46:58.602Z,8.63
2022-07-26T02:49:26.103Z,10.75
2022-07-26T02:51:53.621Z,7.70
2022-07-26T02:54:21.199Z,8.00
2022-07-26T02:56:48.681Z,9.23
2022-07-26T02:59:16.093Z,10.10
2022-07-26T03:01:43.717Z,10.32
2022-07-26T03:04:11.458Z,10.85
2022-07-26T03:06:39.285Z,10.13
2022-07-26T03:09:06.890Z,8.02
2022-07-26T03:11:34.327Z,11.63
2022-07-26T03:14:02.047Z,8.43
2022-07-26T03:16:30.081Z,11.88
2022-07-26T03:18:58.258Z,8.60
2022-07-26T03:21:25.758Z,9.07
2022-07-26T03:23:54.132Z,10.80
2022-07-26T03:26:21.797Z,9.50
2022-07-26T03:28:49.249Z,10.60
2022-07-26T03:31:16.851Z,11.07
2022-07-26T03:33:44.381Z,11.48
2022-07-26T03:36:15.418Z,11.77
2022-07-26T03:38:43.408Z,11.98
2022-07-26T03:41:13.552Z,15.32
2022-07-26T03:43:41.720Z,10.50
2022-07-26T03:46:09.378Z,11.80
2022-07-26T03:48:37.056Z,8.45
2022-07-26T03:51:04.683Z,10.68
2022-07-26T03:53:32.346Z,9.38
2022-07-26T03:56:18.351Z,14.95
2022-07-26T03:58:46.564Z,10.45
2022-07-26T04:01:14.062Z,10.82
2022-07-26T04:03:45.755Z,12.07
2022-07-26T04:06:15.651Z,9.75
2022-07-26T04:08:43.437Z,8.60
2022-07-26T04:11:10.924Z,8.40
2022-07-26T04:13:38.490Z,9.27
2022-07-26T04:16:06.646Z,7.63
2022-07-26T04:18:34.220Z,9.63
2022-07-26T04:21:01.789Z,5.28
2022-07-26T04:23:29.318Z,7.43
2022-07-26T04:25:56.862Z,3.78
2022-07-26T04:28:28.885Z,9.27
2022-07-26T04:30:57.769Z,5.93
2022-07-26T04:33:25.921Z,6.07
2022-07-26T04:35:54.071Z,7.57
2022-07-26T04:38:21.676Z,4.80
2022-07-26T04:40:51.199Z,5.28
2022-07-26T04:43:19.582Z,6.05
2022-07-26T04:45:47.709Z,4.82
2022-07-26T04:48:15.914Z,6.65
2022-07-26T04:50:44.202Z,4.75
2022-07-26T04:53:11.812Z,6.63
2022-07-26T04:55:40.091Z,7.18
2022-07-26T04:58:07.975Z,7.38
2022-07-26T05:00:56.383Z,6.72
2022-07-26T05:03:25.335Z,7.18
2022-07-26T05:05:53.622Z,6.15
2022-07-26T05:08:21.215Z,3.80
2022-07-26T05:10:54.903Z,9.13
2022-07-26T05:13:29.683Z,6.97
2022-07-26T05:15:59.870Z,6.35
2022-07-26T05:18:29.217Z,8.45
2022-07-26T05:20:57.616Z,10.90
2022-07-26T05:23:25.155Z,5.53
2022-07-26T05:25:52.626Z,8.63
2022-07-26T05:28:20.185Z,7.55
2022-07-26T05:30:47.829Z,4.30
2022-07-26T05:33:16.586Z,5.18
2022-07-26T05:35:44.443Z,4.18
2022-07-26T05:38:11.953Z,3.08
2022-07-26T05:40:39.512Z,3.92
2022-07-26T05:43:07.611Z,2.42
2022-07-26T05:45:35.197Z,3.67
2022-07-26T05:48:02.764Z,2.70
2022-07-26T05:50:33.210Z,5.20
2022-07-26T05:53:00.744Z,4.00
2022-07-26T05:55:28.257Z,4.15
2022-07-26T05:57:55.743Z,2.22
2022-07-26T06:00:23.248Z,3.15
2022-07-26T06:02:51.403Z,2.63
2022-07-26T06:05:19.087Z,2.75
2022-07-26T06:07:46.607Z,3.47
2022-07-26T06:10:14.361Z,2.08
2022-07-26T06:12:41.735Z,4.72
2022-07-26T06:15:15.743Z,1.55
2022-07-26T06:17:43.681Z,2.38
2022-07-26T06:20:11.599Z,3.13
2022-07-26T06:22:39.072Z,5.03
2022-07-26T06:25:07.156Z,4.10
2022-07-26T06:27:34.736Z,6.60
2022-07-26T06:30:02.292Z,3.75
2022-07-26T06:32:29.815Z,2.95
2022-07-26T06:34:57.280Z,1.42
2022-07-26T06:37:24.829Z,3.33
2022-07-26T06:39:52.688Z,3.13
2022-07-26T06:42:20.151Z,1.88
2022-07-26T06:44:47.605Z,1.08
2022-07-26T06:47:15.142Z,6.88
2022-07-26T06:49:44.848Z,4.22
2022-07-26T06:52:12.336Z,4.07
2022-07-26T06:54:39.859Z,1.48
2022-07-26T06:57:07.430Z,2.65
2022-07-26T06:59:34.984Z,3.55
2022-07-26T07:02:02.617Z,2.55
2022-07-26T07:04:31.698Z,3.33
2022-07-26T07:07:06.086Z,2.90
2022-07-26T07:09:34.042Z,0.85
2022-07-26T07:12:09.337Z,1.98
2022-07-26T07:14:38.187Z,1.88
2022-07-26T07:17:12.989Z,3.17
2022-07-26T07:19:41.867Z,2.50
2022-07-26T07:22:12.495Z,1.48
2022-07-26T07:24:41.480Z,1.98
2022-07-26T07:27:10.545Z,4.03
2022-07-26T07:29:41.427Z,1.63
2022-07-26T07:32:18.280Z,1.75
2022-07-26T07:34:49.051Z,2.53
2022-07-26T07:37:18.262Z,6.30
2022-07-26T07:39:50.664Z,2.83
2022-07-26T07:42:19.968Z,2.40
2022-07-26T07:44:47.941Z,3.20
2022-07-26T07:47:15.629Z,2.75
2022-07-26T07:49:43.515Z,4.80
2022-07-26T07:52:11.013Z,4.00
2022-07-26T07:54:38.599Z,2.92
2022-07-26T07:57:06.151Z,2.38
2022-07-26T07:59:33.970Z,4.50
2022-07-26T08:02:07.040Z,5.10
2022-07-26T08:04:34.577Z,3.35
2022-07-26T08:07:02.499Z,2.92
2022-07-26T08:09:29.995Z,1.25
2022-07-26T08:12:01.770Z,1.38
2022-07-26T08:14:29.827Z,1.80
2022-07-26T08:16:57.534Z,1.52
2022-07-26T08:19:26.171Z,2.83
2022-07-26T08:21:58.656Z,2.67
2022-07-26T08:24:26.631Z,2.78
2022-07-26T08:26:54.280Z,1.90
2022-07-26T08:29:21.975Z,2.10
2022-07-26T08:31:50.778Z,1.88
2022-07-26T08:34:18.929Z,3.80
2022-07-26T08:37:14.132Z,6.43
2022-07-26T08:39:33.948Z,19.35
2022-07-26T08:42:04.042Z,12.18
2022-07-26T08:44:31.627Z,14.73
2022-07-26T08:46:59.327Z,10.05
2022-07-26T08:49:27.019Z,4.63
2022-07-26T08:51:54.777Z,6.50
2022-07-26T08:54:22.511Z,6.63
2022-07-26T08:56:52.467Z,7.00
2022-07-26T08:59:22.365Z,8.95
2022-07-26T09:01:55.776Z,8.75
2022-07-26T09:04:43.190Z,9.98
2022-07-26T09:07:16.195Z,7.55
2022-07-26T09:09:55.487Z,7.63
2022-07-26T09:12:24.847Z,6.68
2022-07-26T09:14:53.541Z,3.85
2022-07-26T09:17:23.098Z,8.55
2022-07-26T09:20:10.488Z,2.85
2022-07-26T09:22:39.960Z,3.53
2022-07-26T09:25:21.695Z,6.65
2022-07-26T09:27:49.620Z,1.88
2022-07-26T09:30:17.402Z,3.33
2022-07-26T09:33:02.185Z,2.60
2022-07-26T09:35:51.173Z,2.45
2022-07-26T09:38:19.733Z,4.43
2022-07-26T09:40:51.459Z,2.33
2022-07-26T09:43:24.088Z,3.35
2022-07-26T09:46:07.109Z,3.22
2022-07-26T09:49:06.957Z,2.83
2022-07-26T09:51:46.205Z,3.20
2022-07-26T09:54:31.558Z,4.35
2022-07-26T09:56:59.376Z,3.25
2022-07-26T09:59:28.474Z,3.25
2022-07-26T10:01:58.468Z,8.45
2022-07-26T10:04:26.946Z,4.77
2022-07-26T10:06:55.178Z,5.97
2022-07-26T10:09:23.553Z,2.67
2022-07-26T10:12:02.863Z,3.08
2022-07-26T10:14:33.504Z,2.70
2022-07-26T10:17:21.605Z,1.27
2022-07-26T10:19:57.638Z,1.80
2022-07-26T10:22:30.913Z,1.33
2022-07-26T10:25:18.381Z,1.27
2022-07-26T10:27:47.022Z,1.95
2022-07-26T10:30:22.103Z,1.60
2022-07-26T10:33:00.294Z,1.55
2022-07-26T10:35:36.724Z,2.65
2022-07-26T10:38:09.306Z,2.50
2022-07-26T10:40:38.281Z,5.82
2022-07-26T10:43:39.111Z,4.65
2022-07-26T10:46:17.972Z,4.03
2022-07-26T10:49:07.032Z,1.55
2022-07-26T10:51:37.470Z,3.72
2022-07-26T10:54:07.565Z,2.60
2022-07-26T10:56:35.381Z,8.63
2022-07-26T10:59:04.297Z,2.35
2022-07-26T11:01:43.009Z,3.25
2022-07-26T11:04:23.938Z,2.70
2022-07-26T11:09:20.699Z,3.97
2022-07-26T11:11:49.227Z,4.47
2022-07-26T11:14:18.464Z,3.28
2022-07-26T11:16:50.623Z,4.22
2022-07-26T11:19:22.456Z,1.35
2022-07-26T11:22:00.554Z,1.13
2022-07-26T11:24:28.804Z,3.03
2022-07-26T11:27:02.211Z,3.53
2022-07-26T11:29:38.797Z,3.88
2022-07-26T11:32:20.572Z,5.88
2022-07-26T11:35:09.869Z,3.85
2022-07-26T11:37:37.356Z,4.25
2022-07-26T11:40:05.484Z,3.40
2022-07-26T11:42:33.011Z,3.33
2022-07-26T11:45:00.694Z,3.67
2022-07-26T11:47:28.429Z,1.42
2022-07-26T11:50:21.583Z,1.75
2022-07-26T11:52:43.461Z,3.40
2022-07-26T11:55:10.961Z,14.27
2022-07-26T11:57:38.539Z,2.00
2022-07-26T12:00:07.005Z,2.88
2022-07-26T12:02:34.568Z,2.33
2022-07-26T12:05:22.756Z,14.13
2022-07-26T12:08:00.798Z,4.50
2022-07-26T12:10:28.649Z,2.08
2022-07-26T12:13:09.395Z,3.20
2022-07-26T12:15:52.441Z,5.07
2022-07-26T12:18:27.055Z,1.95
2022-07-26T12:21:09.393Z,3.83
2022-07-26T12:23:45.401Z,2.17
2022-07-26T12:26:40.429Z,1.60
2022-07-26T12:29:27.335Z,1.27
2022-07-26T12:32:11.827Z,4.57
2022-07-26T12:34:42.207Z,6.13
2022-07-26T12:37:12.763Z,1.40
2022-07-26T12:39:41.007Z,5.22
2022-07-26T12:42:21.977Z,1.73
2022-07-26T12:44:49.470Z,5.90
2022-07-26T12:47:17.186Z,7.65
2022-07-26T12:49:46.812Z,4.07
2022-07-26T12:52:16.192Z,3.63
2022-07-26T12:54:45.614Z,2.07
2022-07-26T12:57:13.410Z,2.80
2022-07-26T12:59:45.030Z,1.45
2022-07-26T13:02:13.228Z,1.23
2022-07-26T13:04:40.866Z,2.90
2022-07-26T13:07:08.552Z,1.70
2022-07-26T13:09:36.696Z,1.13
2022-07-26T13:12:05.818Z,0.77
2022-07-26T13:14:34.729Z,1.30
2022-07-26T13:17:03.528Z,1.25
2022-07-26T13:19:31.854Z,2.50
2022-07-26T13:22:01.110Z,1.00
2022-07-26T13:24:30.797Z,1.15
2022-07-26T13:27:00.369Z,1.13
2022-07-26T13:29:28.728Z,1.92
2022-07-26T13:31:57.416Z,1.40
2022-07-26T13:34:25.970Z,1.38
2022-07-26T13:36:53.967Z,2.88
2022-07-26T13:39:21.493Z,1.73
2022-07-26T13:41:49.107Z,2.80
2022-07-26T13:44:17.596Z,5.85
2022-07-26T13:46:45.237Z,3.53
2022-07-26T13:49:12.808Z,6.13
2022-07-26T13:51:59.480Z,1.25
2022-07-26T13:54:33.001Z,2.25
2022-07-26T13:57:02.255Z,4.03
2022-07-26T13:59:29.910Z,2.40
2022-07-26T14:01:57.486Z,1.30
2022-07-26T14:04:25.504Z,1.70
2022-07-26T14:06:53.246Z,2.25
2022-07-26T14:09:21.802Z,4.57
2022-07-26T14:11:49.529Z,2.45
2022-07-26T14:14:17.280Z,4.90
2022-07-26T14:16:48.116Z,4.20
2022-07-26T14:19:18.022Z,2.38
2022-07-26T14:21:47.434Z,4.65
2022-07-26T14:24:27.760Z,6.10
2022-07-26T14:26:58.828Z,4.28
2022-07-26T14:29:27.783Z,1.55
2022-07-26T14:31:55.328Z,3.08
2022-07-26T14:34:22.880Z,2.20
2022-07-26T14:36:50.371Z,3.95
2022-07-26T14:39:17.884Z,4.00
2022-07-26T14:41:45.458Z,1.40
2022-07-26T14:44:13.282Z,3.13
2022-07-26T14:46:43.897Z,2.15
2022-07-26T14:49:11.456Z,1.15
2022-07-26T14:51:39.014Z,2.97
2022-07-26T14:54:06.571Z,5.57
2022-07-26T14:56:34.074Z,7.20
2022-07-26T14:59:01.542Z,5.00
2022-07-26T15:01:29.262Z,5.68
2022-07-26T15:03:57.144Z,4.00
2022-07-26T15:06:24.719Z,3.00
2022-07-26T15:08:52.361Z,5.82
2022-07-26T15:11:19.826Z,3.15
2022-07-26T15:13:47.274Z,1.92
2022-07-26T15:16:14.888Z,3.88
2022-07-26T15:18:42.375Z,1.92
2022-07-26T15:21:09.946Z,9.90
2022-07-26T15:23:37.441Z,4.05
2022-07-26T15:26:05.125Z,1.65
2022-07-26T15:28:32.743Z,2.53
2022-07-26T15:31:00.437Z,2.00
2022-07-26T15:33:27.987Z,3.25
2022-07-26T15:35:55.580Z,5.35
2022-07-26T15:38:23.127Z,6.13
2022-07-26T15:40:50.651Z,3.17
2022-07-26T15:43:23.001Z,2.53
2022-07-26T15:46:10.612Z,1.60
2022-07-26T15:48:38.481Z,2.38
2022-07-26T15:51:06.153Z,11.02
2022-07-26T15:53:35.630Z,4.43
2022-07-26T15:56:03.297Z,3.55
2022-07-26T15:58:30.794Z,3.35
2022-07-26T16:01:00.600Z,13.23
2022-07-26T16:03:28.654Z,2.45
2022-07-26T16:05:56.974Z,4.82
2022-07-26T16:08:24.556Z,4.72
2022-07-26T16:10:52.201Z,8.25
2022-07-26T16:13:19.814Z,2.13
2022-07-26T16:15:47.336Z,3.20
2022-07-26T16:18:15.673Z,8.15
2022-07-26T16:20:43.298Z,13.07
2022-07-26T16:23:10.820Z,8.70
2022-07-26T16:25:38.342Z,8.25
2022-07-26T16:28:05.787Z,7.38
2022-07-26T16:30:33.290Z,5.63
2022-07-26T16:33:02.115Z,3.60
2022-07-26T16:35:30.058Z,7.28
2022-07-26T16:37:57.607Z,7.32
2022-07-26T16:40:25.157Z,6.20
2022-07-26T16:42:52.866Z,6.75
2022-07-26T16:45:20.323Z,5.75
2022-07-26T16:47:47.859Z,10.52
2022-07-26T16:50:25.106Z,4.03
2022-07-26T16:52:55.129Z,9.90
2022-07-26T16:55:22.711Z,10.45
2022-07-26T16:57:50.238Z,8.63
2022-07-26T17:00:19.096Z,6.45
2022-07-26T17:02:46.610Z,7.80
2022-07-26T17:05:14.629Z,4.43
2022-07-26T17:07:42.184Z,7.22
2022-07-26T17:10:10.455Z,7.93
2022-07-26T17:12:38.371Z,6.43
2022-07-26T17:15:06.437Z,4.28
2022-07-26T17:17:33.893Z,3.60
2022-07-26T17:20:01.343Z,5.10
2022-07-26T17:22:28.980Z,5.32
2022-07-26T17:24:56.559Z,4.50
2022-07-26T17:27:24.079Z,6.30
2022-07-26T17:29:53.139Z,6.45
2022-07-26T17:32:20.683Z,5.47
2022-07-26T17:34:48.478Z,7.38
2022-07-26T17:37:15.976Z,3.47
2022-07-26T17:39:52.324Z,9.85
2022-07-26T17:42:21.312Z,2.80
2022-07-26T17:44:49.458Z,5.18
2022-07-26T17:47:27.738Z,5.85
2022-07-26T17:49:57.171Z,5.93
2022-07-26T17:52:26.633Z,6.75
2022-07-26T17:54:55.907Z,2.20
2022-07-26T17:57:23.529Z,3.45
2022-07-26T17:59:51.024Z,3.78
2022-07-26T18:02:18.643Z,8.60
2022-07-26T18:04:46.339Z,3.38
2022-07-26T18:07:14.887Z,4.72
2022-07-26T18:09:42.359Z,6.03
2022-07-26T18:12:09.945Z,3.75
2022-07-26T18:14:38.678Z,6.72
2022-07-26T18:17:06.258Z,4.85
2022-07-26T18:19:33.849Z,7.45
2022-07-26T18:22:05.740Z,10.40
2022-07-26T18:24:33.676Z,13.05
2022-07-26T18:27:01.092Z,3.28
2022-07-26T18:29:28.585Z,5.03
2022-07-26T18:32:00.345Z,3.63
2022-07-26T18:34:28.586Z,4.10
2022-07-26T18:36:56.152Z,4.93
2022-07-26T18:39:23.641Z,2.70
2022-07-26T18:41:51.129Z,4.18
2022-07-26T18:44:18.589Z,2.72
2022-07-26T18:46:46.244Z,6.65
2022-07-26T18:49:19.720Z,4.18
2022-07-26T18:51:48.504Z,7.63
2022-07-26T18:54:17.633Z,5.00
2022-07-26T18:56:45.152Z,3.78
2022-07-26T18:59:12.938Z,4.28
2022-07-26T19:01:40.862Z,3.05
2022-07-26T19:04:08.634Z,4.43
2022-07-26T19:06:37.178Z,4.40
2022-07-26T19:09:05.192Z,3.78
2022-07-26T19:11:33.369Z,4.60
2022-07-26T19:14:05.219Z,4.82
2022-07-26T19:16:32.806Z,3.65
2022-07-26T19:19:00.262Z,5.20
2022-07-26T19:21:27.706Z,8.05
2022-07-26T19:23:55.478Z,7.78
2022-07-26T19:26:23.964Z,7.38
2022-07-26T19:28:51.489Z,9.52
2022-07-26T19:31:19.168Z,3.92
2022-07-26T19:33:46.796Z,5.43
2022-07-26T19:36:17.379Z,3.40
2022-07-26T19:38:53.747Z,2.97
2022-07-26T19:41:21.261Z,3.50
2022-07-26T19:43:48.844Z,5.22
2022-07-26T19:46:16.364Z,3.97
2022-07-26T19:48:43.967Z,8.98
2022-07-26T19:51:11.569Z,5.28
2022-07-26T19:53:39.055Z,4.68
2022-07-26T19:56:07.522Z,9.43
2022-07-26T19:58:35.179Z,6.75
2022-07-26T20:01:02.863Z,5.25
2022-07-26T20:03:30.778Z,6.72
2022-07-26T20:05:59.208Z,2.53
2022-07-26T20:08:26.838Z,2.80
2022-07-26T20:10:54.606Z,4.15
2022-07-26T20:13:22.186Z,6.25
2022-07-26T20:15:49.803Z,6.25
2022-07-26T20:18:19.616Z,4.25
2022-07-26T20:20:47.083Z,7.30
2022-07-26T20:23:14.758Z,4.32
2022-07-26T20:25:42.356Z,5.60
2022-07-26T20:28:09.913Z,5.28
2022-07-26T20:30:37.452Z,5.15
2022-07-26T20:33:04.914Z,1.83
2022-07-26T20:35:32.337Z,2.90
2022-07-26T20:38:01.229Z,2.47
2022-07-26T20:40:29.146Z,1.83
2022-07-26T20:42:56.671Z,2.75
2022-07-26T20:45:25.228Z,4.50
2022-07-26T20:47:54.066Z,3.30
2022-07-26T20:50:23.307Z,3.72
2022-07-26T20:52:51.536Z,7.80
2022-07-26T20:55:19.108Z,5.78
2022-07-26T20:57:47.717Z,8.07
2022-07-26T21:00:16.497Z,13.57
2022-07-26T21:02:44.030Z,10.38
2022-07-26T21:05:11.991Z,12.48
2022-07-26T21:07:55.597Z,16.67
2022-07-26T21:10:29.236Z,16.05
2022-07-26T21:13:01.244Z,16.00
2022-07-26T21:15:29.583Z,15.07
2022-07-26T21:17:58.099Z,9.82
2022-07-26T21:20:25.688Z,12.00
2022-07-26T21:22:53.203Z,14.82
2022-07-26T21:25:20.789Z,8.68
2022-07-26T21:27:48.249Z,12.18
2022-07-26T21:30:15.663Z,15.70
2022-07-26T21:32:43.173Z,12.32
2022-07-26T21:35:10.664Z,9.15
2022-07-26T21:37:38.141Z,10.48
2022-07-26T21:40:06.339Z,10.80
2022-07-26T21:42:35.247Z,11.05
2022-07-26T21:45:02.730Z,12.80
2022-07-26T21:47:30.178Z,10.57
2022-07-26T21:49:57.652Z,11.55
2022-07-26T21:52:25.091Z,10.50
2022-07-26T21:54:52.548Z,13.50
2022-07-26T21:57:20.102Z,9.63
2022-07-26T21:59:47.739Z,11.93
2022-07-26T22:02:15.298Z,11.60
2022-07-26T22:04:47.547Z,11.15
2022-07-26T22:07:14.976Z,9.18
2022-07-26T22:09:42.475Z,11.20
2022-07-26T22:12:10.263Z,10.32
2022-07-26T22:14:37.709Z,7.68
2022-07-26T22:17:05.237Z,9.80
2022-07-26T22:19:32.670Z,9.65
2022-07-26T22:22:02.436Z,8.25
2022-07-26T22:24:29.890Z,6.68
2022-07-26T22:26:57.337Z,9.25
2022-07-26T22:29:24.866Z,6.60
2022-07-26T22:31:52.337Z,6.43
2022-07-26T22:34:19.834Z,6.00
2022-07-26T22:36:47.345Z,6.90
2022-07-26T22:39:15.196Z,6.72
2022-07-26T22:42:12.854Z,4.78
2022-07-26T22:44:30.353Z,6.18
2022-07-26T22:46:59.050Z,3.88
2022-07-26T22:49:27.653Z,3.65
2022-07-26T22:51:55.202Z,5.03
2022-07-26T22:54:23.047Z,6.47
2022-07-26T22:56:50.544Z,4.35
2022-07-26T22:59:18.077Z,5.20
2022-07-26T23:01:45.620Z,4.47
2022-07-26T23:04:13.177Z,4.45
2022-07-26T23:06:40.738Z,3.92
2022-07-26T23:09:09.214Z,4.00
2022-07-26T23:11:37.016Z,4.65
2022-07-26T23:14:04.450Z,5.40
2022-07-26T23:16:32.792Z,5.03
2022-07-26T23:19:00.392Z,8.25
2022-07-26T23:21:28.003Z,5.63
2022-07-26T23:23:55.733Z,6.05
2022-07-26T23:26:23.319Z,4.60
2022-07-26T23:28:51.644Z,3.75
2022-07-26T23:31:19.157Z,5.07
2022-07-26T23:33:50.644Z,5.72
2022-07-26T23:36:22.317Z,6.55
2022-07-26T23:38:49.935Z,5.35
2022-07-26T23:41:17.553Z,3.88
2022-07-26T23:43:45.081Z,5.50
2022-07-26T23:46:12.691Z,7.88
2022-07-26T23:48:40.220Z,7.20
2022-07-26T23:51:07.636Z,5.90
2022-07-26T23:53:35.182Z,7.40
2022-07-26T23:56:02.723Z,3.20
2022-07-26T23:58:30.477Z,6.72
